createdAt,value
2019-03-26T00:00:09.361Z,12.33
2019-03-26T00:02:37.748Z,8.00
2019-03-26T00:05:06.198Z,9.15
2019-03-26T00:07:35.155Z,5.70
2019-03-26T00:10:04.108Z,8.73
2019-03-26T00:12:32.596Z,7.67
2019-03-26T00:15:00.968Z,6.80
2019-03-26T00:17:29.360Z,8.45
2019-03-26T00:19:57.808Z,7.22
2019-03-26T00:22:26.214Z,4.47
2019-03-26T00:24:54.610Z,7.60
2019-03-26T00:27:22.996Z,10.55
2019-03-26T00:29:51.392Z,9.00
2019-03-26T00:32:19.760Z,6.17
2019-03-26T00:34:48.148Z,7.05
2019-03-26T00:37:16.552Z,8.50
2019-03-26T00:39:44.958Z,9.68
2019-03-26T00:42:13.317Z,7.20
2019-03-26T00:44:41.718Z,8.33
2019-03-26T00:47:10.088Z,13.28
2019-03-26T00:49:38.484Z,9.60
2019-03-26T00:52:06.865Z,11.57
2019-03-26T00:54:35.533Z,10.08
2019-03-26T00:57:03.916Z,12.58
2019-03-26T00:59:32.322Z,8.63
2019-03-26T01:02:00.765Z,9.75
2019-03-26T01:04:32.965Z,6.70
2019-03-26T01:06:59.260Z,8.83
2019-03-26T01:09:27.651Z,9.30
2019-03-26T01:11:56.025Z,11.50
2019-03-26T01:14:24.412Z,11.35
2019-03-26T01:16:52.799Z,8.10
2019-03-26T01:19:21.188Z,8.40
2019-03-26T01:21:49.576Z,7.90
2019-03-26T01:24:17.979Z,8.80
2019-03-26T01:26:46.353Z,6.85
2019-03-26T01:29:14.740Z,12.15
2019-03-26T01:31:43.131Z,7.20
2019-03-26T01:34:11.521Z,9.10
2019-03-26T01:36:39.901Z,8.73
2019-03-26T01:39:08.288Z,8.33
2019-03-26T01:41:36.693Z,10.53
2019-03-26T01:44:05.116Z,9.10
2019-03-26T01:46:33.496Z,10.58
2019-03-26T01:49:01.892Z,12.37
2019-03-26T01:51:30.291Z,9.93
2019-03-26T01:53:58.668Z,15.85
2019-03-26T01:56:27.052Z,11.70
2019-03-26T01:58:55.453Z,11.95
2019-03-26T02:01:23.849Z,10.15
2019-03-26T02:03:52.259Z,11.83
2019-03-26T02:06:20.645Z,13.53
2019-03-26T02:08:49.040Z,11.45
2019-03-26T02:11:17.412Z,5.12
2019-03-26T02:13:45.804Z,8.68
2019-03-26T02:16:14.188Z,12.73
2019-03-26T02:18:42.586Z,14.15
2019-03-26T02:21:10.959Z,9.48
2019-03-26T02:23:39.363Z,11.45
2019-03-26T02:26:07.755Z,6.47
2019-03-26T02:28:36.159Z,12.45
2019-03-26T02:31:04.576Z,11.25
2019-03-26T02:33:33.239Z,10.58
2019-03-26T02:36:01.622Z,8.80
2019-03-26T02:38:30.018Z,12.03
2019-03-26T02:40:58.633Z,13.50
2019-03-26T02:43:27.026Z,11.38
2019-03-26T02:45:55.475Z,10.00
2019-03-26T02:48:23.883Z,7.00
2019-03-26T02:50:52.389Z,7.40
2019-03-26T02:53:20.790Z,14.33
2019-03-26T02:55:49.177Z,11.05
2019-03-26T02:58:17.565Z,8.85
2019-03-26T03:00:45.946Z,9.88
2019-03-26T03:03:14.588Z,12.07
2019-03-26T03:05:42.965Z,10.05
2019-03-26T03:08:11.360Z,11.68
2019-03-26T03:10:39.736Z,13.35
2019-03-26T03:13:08.145Z,12.07
2019-03-26T03:15:36.542Z,7.80
2019-03-26T03:18:05.003Z,9.33
2019-03-26T03:20:33.375Z,9.80
2019-03-26T03:23:02.021Z,10.60
2019-03-26T03:25:30.391Z,10.08
2019-03-26T03:27:58.861Z,13.30
2019-03-26T03:30:27.252Z,14.23
2019-03-26T03:32:55.637Z,8.83
2019-03-26T03:35:24.039Z,12.98
2019-03-26T03:37:52.648Z,7.75
2019-03-26T03:40:21.118Z,6.62
2019-03-26T03:42:49.501Z,9.60
2019-03-26T03:45:20.972Z,10.78
2019-03-26T03:47:49.485Z,8.88
2019-03-26T03:50:17.881Z,15.28
2019-03-26T03:52:47.106Z,9.70
2019-03-26T03:55:16.163Z,11.45
2019-03-26T03:57:46.889Z,9.30
2019-03-26T04:00:36.185Z,10.93
2019-03-26T04:03:05.411Z,13.40
2019-03-26T04:05:34.747Z,10.00
2019-03-26T04:08:03.290Z,12.03
2019-03-26T04:10:31.769Z,11.20
2019-03-26T04:13:00.162Z,10.55
2019-03-26T04:15:28.553Z,7.70
2019-03-26T04:17:56.938Z,13.88
2019-03-26T04:20:25.321Z,10.50
2019-03-26T04:22:53.700Z,9.35
2019-03-26T04:25:22.091Z,11.15
2019-03-26T04:27:50.470Z,18.20
2019-03-26T04:30:27.036Z,11.73
2019-03-26T04:32:55.415Z,11.53
2019-03-26T04:35:23.845Z,11.50
2019-03-26T04:37:52.251Z,15.48
2019-03-26T04:40:20.642Z,10.88
2019-03-26T04:42:49.265Z,13.48
2019-03-26T04:45:17.650Z,17.82
2019-03-26T04:47:46.285Z,11.93
2019-03-26T04:50:14.681Z,13.32
2019-03-26T04:52:43.055Z,11.35
2019-03-26T04:55:11.445Z,10.80
2019-03-26T04:57:39.840Z,10.38
2019-03-26T05:00:08.776Z,14.10
2019-03-26T05:02:37.165Z,8.88
2019-03-26T05:05:06.622Z,16.73
2019-03-26T05:07:35.012Z,16.82
2019-03-26T05:10:04.460Z,8.20
2019-03-26T05:12:32.840Z,11.03
2019-03-26T05:15:01.236Z,12.80
2019-03-26T05:17:29.628Z,11.20
2019-03-26T05:19:58.015Z,6.70
2019-03-26T05:22:26.623Z,15.23
2019-03-26T05:24:55.029Z,11.78
2019-03-26T05:27:23.408Z,8.90
2019-03-26T05:29:51.792Z,8.45
2019-03-26T05:32:20.180Z,10.23
2019-03-26T05:34:48.569Z,8.55
2019-03-26T05:37:16.988Z,7.70
2019-03-26T05:39:45.389Z,11.12
2019-03-26T05:42:13.776Z,7.67
2019-03-26T05:44:42.160Z,10.00
2019-03-26T05:47:10.540Z,7.28
2019-03-26T05:49:38.945Z,16.10
2019-03-26T05:52:07.319Z,9.73
2019-03-26T05:54:35.716Z,12.80
2019-03-26T05:57:04.333Z,15.43
2019-03-26T05:59:32.732Z,8.65
2019-03-26T06:02:13.472Z,7.12
2019-03-26T06:04:31.236Z,8.95
2019-03-26T06:07:05.105Z,11.35
2019-03-26T06:09:29.768Z,12.20
2019-03-26T06:11:58.148Z,8.75
2019-03-26T06:14:26.541Z,11.45
2019-03-26T06:16:54.938Z,10.10
2019-03-26T06:19:23.331Z,8.90
2019-03-26T06:21:52.016Z,12.07
2019-03-26T06:24:20.408Z,7.47
2019-03-26T06:26:48.785Z,8.95
2019-03-26T06:29:17.165Z,11.75
2019-03-26T06:31:45.560Z,11.22
2019-03-26T06:34:13.933Z,8.15
2019-03-26T06:36:42.602Z,11.68
2019-03-26T06:39:10.967Z,7.72
2019-03-26T06:41:39.355Z,10.05
2019-03-26T06:44:07.748Z,7.08
2019-03-26T06:46:36.123Z,7.50
2019-03-26T06:49:04.588Z,12.68
2019-03-26T06:51:33.136Z,7.42
2019-03-26T06:54:01.516Z,12.88
2019-03-26T06:56:29.907Z,12.28
2019-03-26T06:58:58.300Z,10.00
2019-03-26T07:01:26.684Z,4.72
2019-03-26T07:03:55.137Z,11.68
2019-03-26T07:06:23.532Z,8.23
2019-03-26T07:08:51.938Z,5.90
2019-03-26T07:11:20.295Z,4.85
2019-03-26T07:13:48.674Z,7.22
2019-03-26T07:16:17.069Z,10.82
2019-03-26T07:18:45.775Z,6.58
2019-03-26T07:21:14.168Z,5.78
2019-03-26T07:23:42.550Z,11.45
2019-03-26T07:26:11.329Z,7.35
2019-03-26T07:28:39.703Z,8.35
2019-03-26T07:31:08.094Z,8.15
2019-03-26T07:33:36.468Z,7.72
2019-03-26T07:36:04.844Z,8.40
2019-03-26T07:38:33.240Z,8.28
2019-03-26T07:41:01.619Z,6.67
2019-03-26T07:43:30.008Z,9.30
2019-03-26T07:45:58.388Z,7.12
2019-03-26T07:48:26.792Z,8.75
2019-03-26T07:50:55.172Z,7.17
2019-03-26T07:53:23.556Z,9.95
2019-03-26T07:55:51.941Z,11.78
2019-03-26T07:58:20.678Z,7.62
2019-03-26T08:00:49.109Z,10.53
2019-03-26T08:03:17.489Z,9.28
2019-03-26T08:05:45.867Z,8.28
2019-03-26T08:08:14.296Z,12.15
2019-03-26T08:10:42.992Z,8.08
2019-03-26T08:13:11.423Z,4.60
2019-03-26T08:15:39.860Z,11.05
2019-03-26T08:18:08.259Z,7.15
2019-03-26T08:20:36.643Z,12.78
2019-03-26T08:23:05.036Z,8.88
2019-03-26T08:25:33.979Z,16.00
2019-03-26T08:28:05.050Z,10.28
2019-03-26T08:30:32.716Z,17.25
2019-03-26T08:33:01.487Z,10.70
2019-03-26T08:35:29.872Z,16.67
2019-03-26T08:38:11.312Z,10.85
2019-03-26T08:40:28.679Z,14.50
2019-03-26T08:42:57.088Z,16.85
2019-03-26T08:45:25.477Z,9.60
2019-03-26T08:47:53.857Z,12.05
2019-03-26T08:50:22.272Z,15.15
2019-03-26T08:52:50.721Z,11.03
2019-03-26T08:55:19.117Z,14.18
2019-03-26T08:57:47.516Z,14.80
2019-03-26T09:00:15.974Z,22.07
2019-03-26T09:02:44.365Z,11.95
2019-03-26T09:05:12.896Z,14.70
2019-03-26T09:07:41.576Z,15.85
2019-03-26T09:10:11.307Z,15.32
2019-03-26T09:12:39.919Z,18.07
2019-03-26T09:15:14.055Z,17.70
2019-03-26T09:17:44.118Z,14.28
2019-03-26T09:20:11.478Z,11.75
2019-03-26T09:22:39.869Z,13.03
2019-03-26T09:25:08.515Z,14.55
2019-03-26T09:27:36.913Z,15.28
2019-03-26T09:30:11.089Z,13.08
2019-03-26T09:32:40.051Z,16.00
2019-03-26T09:35:09.075Z,17.27
2019-03-26T09:37:37.476Z,10.00
2019-03-26T09:40:08.318Z,16.17
2019-03-26T09:42:37.144Z,12.25
2019-03-26T09:45:08.624Z,17.82
2019-03-26T09:47:37.378Z,20.25
2019-03-26T09:50:07.708Z,16.35
2019-03-26T09:52:36.168Z,17.07
2019-03-26T09:55:06.556Z,17.60
2019-03-26T09:57:36.140Z,21.97
2019-03-26T10:00:09.708Z,19.07
2019-03-26T10:02:38.086Z,14.78
2019-03-26T10:05:07.523Z,13.65
2019-03-26T10:07:35.899Z,14.75
2019-03-26T10:10:07.273Z,11.63
2019-03-26T10:12:35.657Z,15.20
2019-03-26T10:15:05.896Z,12.78
2019-03-26T10:17:34.285Z,15.08
2019-03-26T10:20:02.681Z,15.30
2019-03-26T10:22:31.060Z,16.00
2019-03-26T10:24:59.467Z,17.10
2019-03-26T10:27:27.848Z,13.28
2019-03-26T10:29:56.254Z,18.87
2019-03-26T10:32:24.647Z,15.63
2019-03-26T10:34:53.301Z,14.60
2019-03-26T10:37:21.976Z,16.45
2019-03-26T10:39:50.357Z,15.03
2019-03-26T10:42:18.748Z,13.53
2019-03-26T10:44:47.141Z,8.15
2019-03-26T10:47:15.532Z,10.98
2019-03-26T10:49:43.915Z,9.63
2019-03-26T10:52:12.315Z,8.80
2019-03-26T10:54:40.944Z,9.15
2019-03-26T10:57:09.341Z,16.00
2019-03-26T10:59:37.731Z,11.88
2019-03-26T11:02:06.392Z,14.78
2019-03-26T11:04:34.784Z,11.78
2019-03-26T11:07:03.184Z,20.68
2019-03-26T11:09:31.572Z,12.75
2019-03-26T11:12:00.441Z,10.93
2019-03-26T11:14:31.689Z,16.15
2019-03-26T11:16:59.237Z,15.83
2019-03-26T11:19:27.625Z,17.65
2019-03-26T11:21:56.025Z,14.87
2019-03-26T11:24:24.408Z,14.03
2019-03-26T11:26:53.064Z,14.85
2019-03-26T11:29:21.454Z,19.57
2019-03-26T11:31:49.860Z,12.70
2019-03-26T11:34:18.247Z,14.58
2019-03-26T11:36:46.648Z,18.23
2019-03-26T11:39:15.100Z,17.37
2019-03-26T11:41:43.491Z,18.25
2019-03-26T11:44:12.152Z,16.25
2019-03-26T11:46:40.540Z,28.05
2019-03-26T11:49:08.932Z,23.50
2019-03-26T11:51:37.328Z,25.57
2019-03-26T11:54:05.720Z,19.80
2019-03-26T11:56:34.127Z,16.55
2019-03-26T11:59:02.513Z,16.90
2019-03-26T12:01:30.912Z,17.75
2019-03-26T12:03:59.299Z,16.42
2019-03-26T12:06:27.704Z,16.45
2019-03-26T12:08:56.085Z,18.70
2019-03-26T12:11:24.487Z,21.10
2019-03-26T12:13:52.877Z,19.40
2019-03-26T12:16:21.278Z,16.23
2019-03-26T12:18:49.669Z,14.68
2019-03-26T12:21:18.068Z,15.68
2019-03-26T12:23:46.447Z,15.90
2019-03-26T12:26:14.853Z,16.23
2019-03-26T12:28:43.259Z,17.65
2019-03-26T12:31:11.668Z,15.40
2019-03-26T12:33:40.065Z,16.73
2019-03-26T12:36:08.518Z,18.10
2019-03-26T12:38:37.216Z,18.77
2019-03-26T12:41:05.680Z,16.30
2019-03-26T12:43:34.074Z,17.00
2019-03-26T12:46:02.460Z,14.95
2019-03-26T12:48:30.855Z,13.13
2019-03-26T12:50:59.232Z,16.67
2019-03-26T12:53:27.629Z,16.00
2019-03-26T12:55:56.013Z,15.53
2019-03-26T12:58:31.775Z,16.60
2019-03-26T13:00:54.541Z,17.75
2019-03-26T13:03:22.991Z,13.50
2019-03-26T13:05:51.437Z,15.90
2019-03-26T13:08:19.831Z,18.52
2019-03-26T13:10:53.826Z,19.73
2019-03-26T13:13:18.420Z,14.98
2019-03-26T13:15:47.132Z,16.65
2019-03-26T13:18:15.915Z,19.07
2019-03-26T13:20:44.320Z,17.85
2019-03-26T13:23:12.704Z,17.07
2019-03-26T13:25:41.092Z,14.07
2019-03-26T13:28:09.501Z,18.17
2019-03-26T13:30:37.967Z,13.00
2019-03-26T13:33:06.599Z,18.55
2019-03-26T13:35:35.291Z,17.45
2019-03-26T13:38:03.694Z,16.80
2019-03-26T13:40:32.086Z,14.20
2019-03-26T13:43:00.488Z,21.80
2019-03-26T13:45:28.864Z,15.70
2019-03-26T13:47:57.259Z,18.75
2019-03-26T13:50:25.675Z,12.30
2019-03-26T13:52:54.072Z,15.18
2019-03-26T13:55:22.456Z,19.20
2019-03-26T13:57:50.849Z,15.58
2019-03-26T14:00:22.311Z,13.43
2019-03-26T14:02:50.688Z,14.65
2019-03-26T14:05:24.184Z,13.70
2019-03-26T14:07:52.686Z,14.90
2019-03-26T14:10:21.260Z,15.60
2019-03-26T14:12:49.816Z,12.53
2019-03-26T14:15:18.216Z,15.05
2019-03-26T14:17:46.595Z,11.60
2019-03-26T14:20:16.235Z,18.00
2019-03-26T14:22:44.635Z,10.63
2019-03-26T14:25:13.600Z,12.47
2019-03-26T14:27:41.983Z,12.95
2019-03-26T14:30:11.921Z,9.30
2019-03-26T14:32:40.304Z,16.25
2019-03-26T14:35:09.373Z,14.60
2019-03-26T14:37:50.648Z,13.43
2019-03-26T14:40:08.252Z,14.07
2019-03-26T14:42:36.644Z,13.03
2019-03-26T14:45:07.551Z,13.68
2019-03-26T14:47:35.936Z,15.05
2019-03-26T14:50:06.597Z,15.00
2019-03-26T14:55:02.585Z,10.43
2019-03-26T14:57:30.969Z,10.95
2019-03-26T14:59:59.374Z,9.35
2019-03-26T15:02:27.756Z,13.48
2019-03-26T15:04:56.158Z,12.78
2019-03-26T15:07:24.545Z,13.05
2019-03-26T15:09:52.944Z,13.75
2019-03-26T15:12:21.349Z,11.43
2019-03-26T15:14:49.771Z,9.43
2019-03-26T15:17:18.132Z,10.88
2019-03-26T15:19:46.528Z,12.90
2019-03-26T15:22:15.202Z,12.98
2019-03-26T15:24:43.594Z,11.50
2019-03-26T15:27:11.981Z,12.28
2019-03-26T15:29:40.448Z,14.18
2019-03-26T15:32:08.827Z,12.75
2019-03-26T15:34:37.232Z,14.20
2019-03-26T15:37:05.690Z,13.55
2019-03-26T15:39:34.093Z,14.80
2019-03-26T15:42:02.482Z,17.17
2019-03-26T15:44:30.872Z,13.88
2019-03-26T15:46:59.515Z,15.78
2019-03-26T15:49:27.908Z,16.17
2019-03-26T15:51:56.304Z,14.58
2019-03-26T15:54:24.684Z,10.65
2019-03-26T15:56:53.082Z,13.80
2019-03-26T15:59:21.468Z,15.35
2019-03-26T16:01:49.869Z,12.85
2019-03-26T16:04:18.531Z,17.85
2019-03-26T16:06:46.908Z,15.23
2019-03-26T16:09:15.304Z,14.28
2019-03-26T16:11:43.700Z,15.23
2019-03-26T16:14:12.087Z,13.08
2019-03-26T16:16:40.475Z,13.50
2019-03-26T16:19:08.856Z,14.30
2019-03-26T16:21:37.316Z,17.27
2019-03-26T16:24:05.912Z,17.95
2019-03-26T16:26:34.305Z,18.75
2019-03-26T16:29:03.003Z,15.85
2019-03-26T16:31:31.394Z,15.28
2019-03-26T16:33:59.778Z,19.65
2019-03-26T16:36:28.181Z,19.35
2019-03-26T16:38:56.567Z,15.83
2019-03-26T16:41:24.965Z,20.88
2019-03-26T16:43:53.351Z,20.08
2019-03-26T16:46:21.745Z,20.92
2019-03-26T16:48:50.136Z,17.23
2019-03-26T16:51:18.530Z,18.70
2019-03-26T16:53:46.920Z,14.45
2019-03-26T16:56:15.593Z,15.75
2019-03-26T16:58:43.989Z,19.23
2019-03-26T17:01:12.368Z,20.43
2019-03-26T17:03:40.757Z,15.83
2019-03-26T17:06:09.220Z,18.82
2019-03-26T17:08:37.608Z,17.45
2019-03-26T17:11:06.001Z,17.32
2019-03-26T17:13:34.384Z,18.17
2019-03-26T17:16:05.541Z,17.73
2019-03-26T17:18:32.878Z,13.85
2019-03-26T17:21:01.546Z,15.53
2019-03-26T17:23:29.933Z,17.00
2019-03-26T17:25:58.320Z,13.13
2019-03-26T17:28:26.714Z,12.53
2019-03-26T17:30:55.112Z,13.90
2019-03-26T17:33:23.496Z,12.47
2019-03-26T17:35:51.896Z,14.53
2019-03-26T17:38:20.288Z,16.60
2019-03-26T17:40:48.686Z,16.82
2019-03-26T17:43:17.077Z,14.18
2019-03-26T17:45:45.473Z,15.90
2019-03-26T17:48:13.869Z,13.75
2019-03-26T17:50:42.273Z,16.05
2019-03-26T17:53:10.902Z,15.58
2019-03-26T17:55:39.295Z,16.32
2019-03-26T17:58:07.972Z,11.28
2019-03-26T18:00:41.665Z,13.83
2019-03-26T18:03:10.356Z,9.70
2019-03-26T18:05:38.760Z,13.50
2019-03-26T18:08:07.225Z,17.77
2019-03-26T18:10:35.617Z,13.35
2019-03-26T18:13:04.002Z,18.07
2019-03-26T18:15:33.788Z,13.55
2019-03-26T18:18:02.173Z,13.95
2019-03-26T18:20:32.821Z,15.48
2019-03-26T18:23:00.676Z,14.45
2019-03-26T18:25:29.077Z,16.55
2019-03-26T18:27:57.758Z,18.45
2019-03-26T18:30:26.439Z,12.37
2019-03-26T18:32:55.097Z,17.20
2019-03-26T18:35:23.503Z,11.60
2019-03-26T18:37:51.933Z,14.40
2019-03-26T18:40:20.334Z,11.03
2019-03-26T18:42:49.621Z,11.28
2019-03-26T18:45:18.014Z,11.93
2019-03-26T18:47:46.404Z,16.77
2019-03-26T18:50:15.232Z,12.78
2019-03-26T18:52:43.620Z,16.12
2019-03-26T18:55:12.544Z,9.30
2019-03-26T18:57:40.937Z,17.77
2019-03-26T19:00:12.236Z,13.72
2019-03-26T19:02:40.653Z,12.35
2019-03-26T19:05:09.653Z,12.33
2019-03-26T19:07:38.044Z,13.03
2019-03-26T19:10:22.668Z,14.05
2019-03-26T19:12:56.835Z,15.68
2019-03-26T19:15:21.164Z,15.90
2019-03-26T19:17:49.558Z,12.55
2019-03-26T19:20:17.948Z,14.45
2019-03-26T19:22:46.336Z,16.90
2019-03-26T19:25:14.715Z,13.30
2019-03-26T19:27:43.124Z,13.80
2019-03-26T19:30:11.947Z,13.90
2019-03-26T19:32:40.346Z,13.70
2019-03-26T19:35:08.786Z,14.75
2019-03-26T19:37:37.172Z,17.15
2019-03-26T19:40:07.297Z,16.10
2019-03-26T19:42:36.085Z,23.00
2019-03-26T19:45:05.505Z,20.62
2019-03-26T19:47:33.904Z,16.93
2019-03-26T19:50:02.284Z,21.52
2019-03-26T19:52:30.669Z,21.20
2019-03-26T19:55:00.833Z,19.57
2019-03-26T19:57:29.228Z,19.50
2019-03-26T19:59:57.604Z,17.67
2019-03-26T20:02:26.303Z,21.23
2019-03-26T20:04:54.728Z,23.02
2019-03-26T20:07:23.122Z,20.45
2019-03-26T20:09:51.580Z,22.13
2019-03-26T20:12:19.975Z,20.90
2019-03-26T20:14:48.351Z,19.70
2019-03-26T20:17:16.740Z,17.27
2019-03-26T20:19:45.374Z,19.50
2019-03-26T20:22:13.770Z,23.32
2019-03-26T20:24:42.220Z,20.90
2019-03-26T20:27:10.622Z,26.60
2019-03-26T20:29:39.009Z,22.98
2019-03-26T20:32:07.417Z,24.60
2019-03-26T20:34:35.809Z,25.97
2019-03-26T20:37:04.273Z,23.75
2019-03-26T20:39:32.653Z,27.22
2019-03-26T20:42:01.056Z,34.20
2019-03-26T20:44:29.436Z,36.75
2019-03-26T20:46:58.073Z,35.60
2019-03-26T20:49:26.461Z,34.20
2019-03-26T20:51:54.855Z,43.90
2019-03-26T20:54:23.236Z,40.58
2019-03-26T20:56:52.013Z,42.40
2019-03-26T20:59:20.396Z,40.45
2019-03-26T21:01:48.784Z,44.98
2019-03-26T21:04:17.167Z,36.48
2019-03-26T21:06:45.791Z,38.53
2019-03-26T21:09:14.185Z,31.75
2019-03-26T21:11:42.584Z,38.95
2019-03-26T21:14:10.960Z,39.00
2019-03-26T21:16:39.420Z,35.33
2019-03-26T21:19:07.812Z,36.60
2019-03-26T21:21:36.207Z,36.38
2019-03-26T21:24:04.587Z,29.48
2019-03-26T21:26:32.989Z,31.68
2019-03-26T21:29:01.371Z,23.07
2019-03-26T21:31:29.765Z,28.55
2019-03-26T21:33:58.208Z,25.48
2019-03-26T21:36:26.610Z,27.55
2019-03-26T21:38:54.995Z,27.58
2019-03-26T21:41:23.376Z,19.82
2019-03-26T21:44:03.526Z,22.05
2019-03-26T21:46:21.872Z,21.80
2019-03-26T21:48:50.858Z,24.12
2019-03-26T21:51:19.240Z,21.23
2019-03-26T21:53:47.715Z,17.32
2019-03-26T21:56:16.097Z,18.67
2019-03-26T21:58:44.784Z,16.05
2019-03-26T22:01:13.168Z,21.55
2019-03-26T22:03:41.568Z,19.02
2019-03-26T22:06:09.948Z,18.45
2019-03-26T22:08:38.613Z,19.32
2019-03-26T22:11:06.988Z,14.85
2019-03-26T22:13:35.383Z,15.23
2019-03-26T22:16:03.768Z,19.57
2019-03-26T22:18:32.168Z,16.05
2019-03-26T22:21:00.544Z,15.40
2019-03-26T22:23:28.946Z,15.72
2019-03-26T22:25:57.580Z,19.40
2019-03-26T22:28:25.973Z,16.73
2019-03-26T22:30:54.352Z,19.02
2019-03-26T22:33:22.747Z,14.98
2019-03-26T22:35:51.125Z,16.73
2019-03-26T22:38:19.513Z,19.60
2019-03-26T22:40:47.888Z,19.75
2019-03-26T22:43:16.277Z,17.55
2019-03-26T22:45:44.656Z,20.43
2019-03-26T22:48:13.044Z,16.77
2019-03-26T22:50:41.420Z,24.07
2019-03-26T22:53:09.812Z,22.13
2019-03-26T22:55:38.185Z,16.70
2019-03-26T22:58:06.575Z,19.40
2019-03-26T23:00:36.031Z,19.45
2019-03-26T23:03:05.140Z,19.92
2019-03-26T23:05:33.522Z,21.97
2019-03-26T23:08:01.973Z,19.73
2019-03-26T23:10:30.355Z,20.25
2019-03-26T23:12:58.763Z,20.40
2019-03-26T23:15:28.416Z,23.87
2019-03-26T23:17:56.804Z,19.30
2019-03-26T23:20:25.200Z,25.45
2019-03-26T23:22:53.593Z,20.70
2019-03-26T23:25:21.980Z,23.83
2019-03-26T23:27:50.373Z,18.35
2019-03-26T23:30:18.830Z,17.10
2019-03-26T23:32:47.224Z,20.30
2019-03-26T23:35:15.681Z,17.55
2019-03-26T23:37:44.144Z,19.27
2019-03-26T23:40:12.964Z,19.02
2019-03-26T23:42:41.361Z,21.87
2019-03-26T23:45:10.304Z,21.57
2019-03-26T23:47:38.693Z,20.88
2019-03-26T23:50:09.016Z,23.55
2019-03-26T23:52:37.681Z,27.13
2019-03-26T23:55:07.707Z,22.73
2019-03-26T23:57:37.665Z,18.62
